Date,TemperatureHighF,TemperatureAvgF,TemperatureLowF,DewpointHighF,DewpointAvgF,DewpointLowF,HumidityHigh,HumidityAvg,HumidityLow,PressureMaxIn,PressureMinIn,WindSpeedMaxMPH,WindSpeedAvgMPH,GustSpeedMaxMPH,PrecipitationSumIn
2013-2-1,43,42,40,43,42,39,100,100,100,30.41,30.33,4,1,7,0.11
2013-2-2,47,40,36,45,38,34,100,94,61,30.37,30.25,3,1,4,0.15
2013-2-3,42,40,37,42,40,37,100,98,85,30.31,30.20,2,2,4,0.09
2013-2-4,49,41,39,46,41,39,100,99,87,30.21,29.90,3,2,4,0.05
2013-2-5,42,40,39,42,40,39,100,100,100,29.95,29.84,5,3,7,0.24
2013-2-6,43,40,38,43,40,38,100,99,88,30.06,29.80,4,2,6,0.02
2013-2-7,43,38,35,40,37,35,100,98,87,30.17,29.80,4,3,7,0.23
2013-2-8,36,35,33,36,35,33,100,100,100,30.27,30.16,2,1,5,0.00
2013-2-9,39,37,35,39,37,35,100,100,100,30.32,30.25,2,0,4,0.04
2013-2-10,41,37,33,38,36,33,100,98,87,30.36,30.31,2,1,4,0.00
2013-2-11,42,38,35,41,38,35,100,99,89,30.35,30.31,2,1,3,0.00
2013-2-12,44,42,40,44,42,40,100,100,100,30.41,30.32,2,0,2,0.00
2013-2-13,43,41,39,43,41,39,100,100,100,30.49,30.31,0,0,0,0.00
2013-2-14,44,41,38,44,41,38,100,100,100,30.55,30.49,0,0,0,0.00
2013-2-15,49,44,39,47,43,39,100,98,90,30.54,30.19,0,0,0,0.00
2013-2-16,46,42,37,45,41,37,100,97,86,30.19,30.14,0,0,0,0.00
2013-2-17,37,37,36,37,37,36,100,100,100,30.21,30.19,0,0,0,0.00
2013-2-18,41,39,38,39,36,32,95,90,75,29.91,29.75,0,0,0,0.02
2013-2-19,45,39,35,37,34,32,100,85,71,29.99,29.72,0,0,0,0.00
2013-2-20,39,37,35,39,36,34,100,98,86,30.03,29.99,0,0,0,0.01
2013-2-21,38,36,35,38,36,35,100,100,100,30.07,29.99,0,0,0,0.01
2013-2-22,40,37,33,40,37,33,100,100,100,30.06,29.72,0,0,0,0.12
2013-2-23,43,37,34,43,36,34,100,99,90,30.36,29.90,0,0,0,0.02
2013-2-24,41,38,35,40,37,35,100,99,85,30.37,29.96,0,0,0,0.02
2013-2-25,40,37,36,39,37,36,100,100,87,30.29,29.89,0,0,0,0.03
2013-2-26,43,38,35,37,35,32,100,89,67,30.34,30.19,0,0,0,0.00
2013-2-27,45,40,36,43,40,36,100,99,90,30.31,30.19,0,0,0,0.18
2013-2-28,48,44,40,48,44,40,100,100,100,30.35,30.19,0,0,0,0.36